Skip Navigation Links Skip Navigation Links

Current Weather

New River Valley, Dublin, Va.

For information only: do not use for flight planning or navigation.
Latest weather
Observation time Thursday, December 13, 2018 12:55 PM EST
Local time Thursday, December 13, 2018 1:14 PM EST
Flight conditions Visual Meteorological Conditions
Winds
Wind speed calm
Visibility 10 mi.
Sky condition
Ceiling 4,300 ft. overcast
Cloud layer overcast 4,300 ft.
Temperature 43°F
Dewpoint 29°F
Altimeter 30.25 in.Hg
Derived measurements
Relative humidity 59%
Wind chill 43°F
Density altitude 728 ft.
Climate data
Remarks
Fully automated report.
Automated weather observing station with precipitation discriminator.
METAR KPSK 131755Z AUTO 00000KT 10SM OVC043 06/M01 A3025 RMK AO2 T00601014 10060 20002

Settings

Location code

InnerDrive.Weather 4.0.6770.0 Release CLR 4.0.30319.42000
Copyright ©2018 Inner Drive Technology. All rights reserved. Portions Copyright ©1986-2018 David Braverman.

Find weather

Site navigation


Skip Navigation Links

Place info

Page info

PayPal - The safer, easier way to pay online!

Return home.

Copyright ©2018 Inner Drive Technology. Purveyors of fine, hand-crafted computer software. Page printed 2018-12-13T18:14:49 UTC.